Timeline UpdatesTrip UpdatesNews PostsPvt PostsTravel TipsAdmin PostsConv PostsFollowed PostsChat RequestsBlog PostsPNR Posts

Disclaimer
Search
 
 
Sun Apr 20, 2014 07:13:09 ISTHomeTrainsΣChainsAtlasPNRForumGalleryNewsFAQTripsMembersLoginFeedback
No Recent News for this Train
Other Trains in the News **new
Latest...
⇐ Return Journey: Train# 53043

53044/Rajgir - Howrah Passenger (UnReserved)

Nov 04 2013 (6:59AM)
Change Departure Station:
Change Arrival Station:
Post a Train Travel TipPost a Train Travel Tip **new
Post a Comment/Question/Picture/VideoPost a Comment/Question/Picture/Video
Pantry/Catering
✕ NO Pantry Car
✕ NO Catering
RSA - Rake Sharing
Rake/Coach Composition
Loco
HWH WDM 3A/3D
News    PNR    Forum    Time-Table    Availability    Fare Chart    Map    Arr/Dep History    Trips    Gallery    ΣChains    X/O    Timeline    
Travel Time: 23h 30m    72 halts    Distance: 657 km    Avg Speed: 27 km/hr
Type: Passenger
Zone: ER/Eastern
Departs @ 12:40 (Avg 1h 49m late)
Platform# ???
SMTWTFS
Rajgir/RGD 
Arrives @ 12:10 +1 night (Avg 3h 8m late)
Platform# 1
SMTWTFS
Kolkata Howrah Junction/HWH 

72 halts. 157 intermediate Stations between Rajgir and Kolkata Howrah Junction

Show ALL intermediate Stations  Show Old Time-Table

#CodeStation NameX/OArrivesAvgDepartsAvgHaltPFDay#KmSpeedElevZoneAddress
1RGD»Rajgir (3)»  -12:40+1:49--10.03871mECRRajgir, Bihar
2NLDNalanda (2)  12:58+1:5212:59+1:571m--111.34063mECRNational Highway 82, Bihar
3BEHSBihar Sharif (2)  13:18+2:0013:23+2:025m--123.83656mECR06112-222306, Bihar
4WENAWena (2)  13:46+1:5913:47+2:001m--137.8947mECRWena, Bihar
5HRTHarnaut (3)X  14:21+1:4214:28+1:417m--142.95349mECRHarnaut, Bihar
6BKPBakhtiyarpur Junction (5)XO  14:40+1:4115:10+2:1930m--153.66851mECRPatna, Bihar
7ATLAthmal Gola (2)  15:18+2:2515:19+2:261m--162.75052mECRPatna, Bihar
8BARHBarh (3)X  15:30+2:1915:32+2:272m--171.87849mECRBarh, Bihar
9PHKPunarakh  15:40+2:3915:41+2:391m--182.22951mECRPunarakh, Bihar
10MORMorXO  15:58+2:3716:27+2:1529m--190.54846mECRMor, Bihar
11MKAMokama Junction (3)  16:36+2:1016:40+2:094m--197.75648mECRPatna, Bihar
12HTZHathidah Junction (2)X  16:49+2:1616:51+2:182m11106.14650mECRMusahari, Bihar
13RDUMRampur DumraO  16:56+2:2116:57+2:331m--1109.93746mECRNational Highway 80, Bihar
14BRYABarhiyaX  17:06+2:3417:08+2:342m--1115.52247mECRBarahiya, Bihar
15MKBMankatha  17:34+2:2717:40+2:276m--1124.93047mECRNational Highway 80, Bihar
16LKRLuckeesarai Junction (2)X  17:51+2:2417:53+2:232m--1130.51252mECRLakhisarai, Bihar
17KIULKiul Junction (5)X  18:00+2:1518:25+2:0225m--1131.93653mECRDist. Lakhisarai, Bihar
18DNREDhanauri  18:35+2:1518:37+2:142m--1137.94948mERNational Highway 80, Bihar
19URENUrenX  18:43+2:1618:45+2:172m--1142.85845mERUren, Bihar
20KJHKajra (2)  18:50+2:1818:51+2:191m--1147.66250mERLakhisarai District, Bihar
21AHAAbhaipurX  18:58+2:2118:59+2:221m--1154.94852mERAbhaipur, Bihar
22MSDNMasudan  19:04+2:2319:05+2:241m--1158.96045mERMasudan, Bihar
23DRHDharhara (2)  19:11+2:2419:12+2:251m--1164.91855mERDharhara, Bihar
24DRTPDasharathpur  19:30+2:1619:31+2:191m--1170.33248mERDharhara, Bihar
25JMPJamalpur Junction (4)  19:43+2:0219:58+2:0615m11176.74259mERJamalpur 06344-243101, Bihar
26RPURRatanpur  20:07+2:2420:08+2:241m--1183.05846mERRatanpur Railway Station, Bihar
27BUPBariarpur (3)  20:13+2:2520:14+2:281m--1187.81142mERMunger, Bihar
28KPRDKalyanpur Road  20:21+2:2720:22+2:271m--1189.11040mERMunger, Bihar
29GNNAGangani  20:29+2:2720:30+2:271m--1190.313338mERGangania, Bihar
30SGGSultanGanj  20:37+2:0620:40+2:063m--1205.85042mERSultanganj, Bihar
31AKNAkbarnagar  20:52+2:2720:53+2:281m--1215.84439mERTilakpur, Bihar
32NATNathnagar  21:01+2:2921:02+2:311m--1226.04048mERBhagalpur, Bihar
33BGPBhagalpur Junction (6)X  21:09+2:2021:19+2:2710m--1230.75049mERBhagalpur, Bihar
34SBOSabaur (3)  21:28+2:4221:29+2:471m--1238.24442mERSabour, Bihar
35LMMLailakh Mamalkha (2)  21:38+2:4821:39+2:511m--1244.95836mERLailakh Mamlkha, Bihar
36GGAGhoga (2)  21:45+2:5321:47+3:002m--1250.76942mERGhoga, Bihar
37EKCEkchari  21:52+3:0321:53+3:041m--1256.45237mERNational Highway 80, Bihar
38CLGKahalgaon (2)  21:58+3:0422:00+3:112m21260.84944mERBhagalpur, Bihar
39SVRPShivanarayanpurX  22:14+3:2122:38+3:1024m--1272.24847mERShivanarayanpur, Bihar
40PPTPirpainti (2)  22:49+3:1222:51+3:222m--1281.15653mERBhagalpur, Bihar
41MZCMirza CheukiX  23:00+3:2423:06+3:316m--1289.62638mERBihar, Bihar
42SBGSahibganj Junction (3)X  23:41+3:2123:59+3:3018m11304.75438mERSahibganj, Jharkhand
43SLJSakrigali JunctionX  00:08+3:4100:09+3:491m--2312.75045mERSakrigali, Jharkhand
44MJPMaharajpur  00:16+3:5200:17+3:581m--2318.67134mERMoharajpur, Jharkhand
45TLJTaljhari  00:27+4:1000:28+4:131m--2330.56538mERTaljhari, Jharkhand
46KXEKalian Chak  00:33+4:1500:34+4:181m--2335.98145mERKalian Chak, Jharkhand
47TPHTinpahar Junction (3)  00:39+4:1300:42+4:163m22342.65745mERBamangawan, Jharkhand
48BKLEBakudi (3)  00:51+4:2100:52+4:271m--2351.22665mERBakudi, Jharkhand
49BHWBarharwa Junction (3)X  01:10+4:1901:20+4:2410m22359.14436mERBarharwa, Jharkhand
50GMANGumani (3)X  01:30+4:2801:31+4:321m--2366.56731mERGumani, Jharkhand
51KLPKotalpukur (3)  01:37+4:3401:39+4:342m--2373.13840mERKotalpukur, Jharkhand
52TBBTilbhita (3)XO  01:51+4:3201:55+4:384m--2380.71731mERTilbhita, Jharkhand
53PKRPakur (2)X  02:10+4:2502:11+4:291m22384.94237mERDist:- Pakur, Jharkhand
54RJGRajgram (3)  02:26+4:3502:27+4:381m22395.57032mERRajgram, West Bengal
55MRRMurarai (3)X  02:37+4:3002:38+4:261m--2407.17036mERMurarai, West Bengal
56NHTNalhati Junction (4)X  02:52+4:2902:54+4:372m22423.42948mERNalhati, West Bengal
57RPHRampurhat (3)  03:23+4:3503:43+4:2920m--2437.56741mERDIST - Birbhum, West Bengal
58SNTSainthia Junction (4)  04:08+4:5104:13+4:525m42465.54758mERDist - Birbhum, West Bengal
59AMPAhmadpur Junction (3)O  04:30+4:4304:35+4:395m--2478.72846mERDist - Birbhum, West Bengal
60PNEPrantik (3)  05:08+4:2905:09+4:291m--2494.05148mERPrantik, West Bengal
61BHPBolpur Shantiniketan (3)  05:14+4:3205:19+4:315m--2498.26059mERBolpur, West Bengal
62BDHBhedia (2)  05:27+4:2905:28+4:301m--2506.25541mERDist - Bardhaman, West Bengal
63GKHGuskara (2)X  05:40+4:3105:41+4:321m--2517.16041mERDist - Bardhaman, West Bengal
64BPSBanpas (3)  05:51+4:2505:52+4:251m--2527.21146mERDist - Bardhaman, West Bengal
65KANKhana Junction (5)X  06:45+4:1906:46+4:191m--2536.95642mERDist - Bardhaman, West Bengal
66BWNBarddhaman Junction (8)XO  07:00+4:2407:20+4:2320m--2550.05034mERDist - Barddhaman, West Bengal
67MYMMemari (4)  07:50+4:3008:00+4:2610m--2575.02225mERMemari, West Bengal
68MUGMagra (3)  09:38+3:3409:43+3:295m--2610.4715mERMagra, West Bengal
69BDCBandel Junction (7)  10:44+2:4910:50+2:536m--2617.23214mERdist - HOOGHLY, West Bengal
70CNSChuchura (3)  10:57+2:4810:58+2:481m--2621.03615mERDist - HOOGHLY - 712102, West Bengal
71CGRChandan Nagar (3)  11:03+2:4811:05+2:512m--2624.05316mERDist -HOOGHLY - 712136, West Bengal
72SHESeoraphuli Junction (6)  11:17+2:5311:19+2:532m--2634.63013mERBaidyabati, West Bengal
73SRPSerampore (4)X  11:24+2:5211:28+2:504m--2637.12811mERdist - hooghly, West Bengal
74HWH•Kolkata Howrah Junction (23)•  12:10+3:08-12656.8-10mERHowrah 711101, West Bengal
Scroll to Top
Scroll to Bottom